sensor_id;sensor_type;location;lat;lon;timestamp;pressure;altitude;pressure_sealevel;temperature;humidity
48614;BME280;34408;51.426;5.444;2022-08-04T00:01:53;101161.63;;;27.09;47.80
48614;BME280;34408;51.426;5.444;2022-08-04T00:04:30;101152.22;;;27.02;48.06
48614;BME280;34408;51.426;5.444;2022-08-04T00:07:04;101161.78;;;27.04;48.39
48614;BME280;34408;51.426;5.444;2022-08-04T00:09:38;101158.22;;;27.04;48.01
48614;BME280;34408;51.426;5.444;2022-08-04T00:12:10;101152.06;;;26.98;47.94
48614;BME280;34408;51.426;5.444;2022-08-04T00:14:46;101153.84;;;27.03;48.07
48614;BME280;34408;51.426;5.444;2022-08-04T00:17:18;101152.22;;;27.02;48.41
48614;BME280;34408;51.426;5.444;2022-08-04T00:19:47;101151.72;;;27.00;48.25
48614;BME280;34408;51.426;5.444;2022-08-04T00:22:18;101153.66;;;26.99;48.07
48614;BME280;34408;51.426;5.444;2022-08-04T00:24:48;101150.91;;;26.99;48.27
48614;BME280;34408;51.426;5.444;2022-08-04T00:27:16;101147.66;;;26.97;48.16
48614;BME280;34408;51.426;5.444;2022-08-04T00:29:46;101155.13;;;26.97;48.16
48614;BME280;34408;51.426;5.444;2022-08-04T00:32:18;101149.91;;;26.95;48.10
48614;BME280;34408;51.426;5.444;2022-08-04T00:35:00;101143.91;;;26.93;48.24
48614;BME280;34408;51.426;5.444;2022-08-04T00:37:28;101145.84;;;26.92;48.28
48614;BME280;34408;51.426;5.444;2022-08-04T00:39:56;101140.66;;;26.91;48.28
48614;BME280;34408;51.426;5.444;2022-08-04T00:42:39;101137.41;;;26.89;48.14
48614;BME280;34408;51.426;5.444;2022-08-04T00:45:57;101139.69;;;26.87;48.10
48614;BME280;34408;51.426;5.444;2022-08-04T00:49:06;101130.13;;;26.84;48.20
48614;BME280;34408;51.426;5.444;2022-08-04T00:51:48;101126.88;;;26.82;48.16
48614;BME280;34408;51.426;5.444;2022-08-04T00:54:41;101134.34;;;26.82;48.12
48614;BME280;34408;51.426;5.444;2022-08-04T00:57:27;101132.22;;;26.79;48.35
48614;BME280;34408;51.426;5.444;2022-08-04T01:00:06;101130.59;;;26.78;48.17
48614;BME280;34408;51.426;5.444;2022-08-04T01:02:40;101126.53;;;26.75;48.05
48614;BME280;34408;51.426;5.444;2022-08-04T01:05:19;101124.91;;;26.74;48.30
48614;BME280;34408;51.426;5.444;2022-08-04T01:08:08;101132.69;;;26.72;48.07
48614;BME280;34408;51.426;5.444;2022-08-04T01:10:47;101123.13;;;26.70;48.22
48614;BME280;34408;51.426;5.444;2022-08-04T01:13:35;101121.34;;;26.65;48.44
48614;BME280;34408;51.426;5.444;2022-08-04T01:16:09;101118.59;;;26.65;48.19
48614;BME280;34408;51.426;5.444;2022-08-04T01:18:58;101122.81;;;26.63;48.21
48614;BME280;34408;51.426;5.444;2022-08-04T01:21:47;101115.50;;;26.58;48.30
48614;BME280;34408;51.426;5.444;2022-08-04T01:24:29;101114.19;;;26.55;48.42
48614;BME280;34408;51.426;5.444;2022-08-04T01:27:05;101107.72;;;26.51;48.25
48614;BME280;34408;51.426;5.444;2022-08-04T01:29:42;101113.53;;;26.50;48.39
48614;BME280;34408;51.426;5.444;2022-08-04T01:32:19;101112.25;;;26.47;48.42
48614;BME280;34408;51.426;5.444;2022-08-04T01:34:55;101109.31;;;26.44;48.45
48614;BME280;34408;51.426;5.444;2022-08-04T01:37:47;101105.75;;;26.43;48.40
48614;BME280;34408;51.426;5.444;2022-08-04T01:40:16;101099.75;;;26.41;48.52
48614;BME280;34408;51.426;5.444;2022-08-04T01:42:44;101093.59;;;26.36;48.46
48614;BME280;34408;51.426;5.444;2022-08-04T01:45:13;101102.66;;;26.36;48.56
48614;BME280;34408;51.426;5.444;2022-08-04T01:47:49;101101.03;;;26.35;48.55
48614;BME280;34408;51.426;5.444;2022-08-04T01:50:17;101097.78;;;26.33;48.43
48614;BME280;34408;51.426;5.444;2022-08-04T01:52:45;101095.66;;;26.30;48.49
48614;BME280;34408;51.426;5.444;2022-08-04T01:55:17;101094.34;;;26.27;48.54
48614;BME280;34408;51.426;5.444;2022-08-04T01:57:46;101098.22;;;26.26;48.49
48614;BME280;34408;51.426;5.444;2022-08-04T02:00:18;101096.63;;;26.25;48.52
48614;BME280;34408;51.426;5.444;2022-08-04T02:02:47;101094.50;;;26.22;48.47
48614;BME280;34408;51.426;5.444;2022-08-04T02:05:18;101090.13;;;26.21;48.51
48614;BME280;34408;51.426;5.444;2022-08-04T02:07:52;101084.13;;;26.19;48.48
48614;BME280;34408;51.426;5.444;2022-08-04T02:10:28;101089.13;;;26.17;48.47
48614;BME280;34408;51.426;5.444;2022-08-04T02:13:06;101083.94;;;26.16;48.61
48614;BME280;34408;51.426;5.444;2022-08-04T02:15:42;101078.75;;;26.14;48.60
48614;BME280;34408;51.426;5.444;2022-08-04T02:18:18;101076.31;;;26.13;48.49
48614;BME280;34408;51.426;5.444;2022-08-04T02:20:54;101074.69;;;26.12;48.63
48614;BME280;34408;51.426;5.444;2022-08-04T02:23:28;101080.53;;;26.10;48.54
48614;BME280;34408;51.426;5.444;2022-08-04T02:25:59;101069.03;;;26.08;48.68
48614;BME280;34408;51.426;5.444;2022-08-04T02:28:32;101070.97;;;26.08;48.60
48614;BME280;34408;51.426;5.444;2022-08-04T02:31:13;101074.84;;;26.07;48.41
48614;BME280;34408;51.426;5.444;2022-08-04T02:33:43;101065.28;;;26.04;48.48
48614;BME280;34408;51.426;5.444;2022-08-04T02:36:15;101068.34;;;26.03;48.68
48614;BME280;34408;51.426;5.444;2022-08-04T02:38:57;101063.97;;;26.02;48.62
48614;BME280;34408;51.426;5.444;2022-08-04T02:41:27;101064.66;;;25.99;48.78
48614;BME280;34408;51.426;5.444;2022-08-04T02:43:56;101061.91;;;25.99;48.70
48614;BME280;34408;51.426;5.444;2022-08-04T02:46:27;101058.34;;;25.98;48.67
48614;BME280;34408;51.426;5.444;2022-08-04T02:48:56;101064.16;;;25.97;48.69
48614;BME280;34408;51.426;5.444;2022-08-04T02:51:27;101057.34;;;25.94;48.62
48614;BME280;34408;51.426;5.444;2022-08-04T02:53:56;101054.09;;;25.92;48.65
48614;BME280;34408;51.426;5.444;2022-08-04T02:56:29;101040.66;;;25.90;48.69
48614;BME280;34408;51.426;5.444;2022-08-04T02:58:59;101042.09;;;25.88;48.71
48614;BME280;34408;51.426;5.444;2022-08-04T03:01:29;101046.81;;;25.87;48.70
48614;BME280;34408;51.426;5.444;2022-08-04T03:04:08;101040.81;;;25.85;48.86
48614;BME280;34408;51.426;5.444;2022-08-04T03:10:29;101035.13;;;25.82;48.67
48614;BME280;34408;51.426;5.444;2022-08-04T03:13:38;101039.31;;;25.79;48.86
48614;BME280;34408;51.426;5.444;2022-08-04T03:16:54;101038.03;;;25.77;48.96
48614;BME280;34408;51.426;5.444;2022-08-04T03:20:05;101038.66;;;25.74;48.87
48614;BME280;34408;51.426;5.444;2022-08-04T03:32:25;101029.03;;;25.62;48.96
48614;BME280;34408;51.426;5.444;2022-08-04T03:35:09;101031.28;;;25.60;49.10
48614;BME280;34408;51.426;5.444;2022-08-04T03:38:06;101025.63;;;25.57;48.93
48614;BME280;34408;51.426;5.444;2022-08-04T03:41:05;101016.06;;;25.54;48.92
48614;BME280;34408;51.426;5.444;2022-08-04T03:43:56;101023.00;;;25.52;49.11
48614;BME280;34408;51.426;5.444;2022-08-04T03:46:52;101025.28;;;25.50;48.97
48614;BME280;34408;51.426;5.444;2022-08-04T03:49:46;101030.59;;;25.46;49.27
48614;BME280;34408;51.426;5.444;2022-08-04T03:52:42;101035.44;;;25.41;48.96
48614;BME280;34408;51.426;5.444;2022-08-04T04:02:01;101049.00;;;25.37;49.43
48614;BME280;34408;51.426;5.444;2022-08-04T04:05:02;101057.09;;;25.34;49.37
48614;BME280;34408;51.426;5.444;2022-08-04T04:07:54;101057.72;;;25.30;49.44
48614;BME280;34408;51.426;5.444;2022-08-04T04:13:29;101053.66;;;25.28;49.28
48614;BME280;34408;51.426;5.444;2022-08-04T04:16:19;101066.22;;;25.20;49.41
48614;BME280;34408;51.426;5.444;2022-08-04T04:19:28;101074.03;;;25.27;49.45
48614;BME280;34408;51.426;5.444;2022-08-04T04:22:23;101067.72;;;25.26;49.16
48614;BME280;34408;51.426;5.444;2022-08-04T04:25:17;101067.22;;;25.24;49.18
48614;BME280;34408;51.426;5.444;2022-08-04T04:28:01;101072.72;;;25.24;49.22
48614;BME280;34408;51.426;5.444;2022-08-04T04:31:02;101073.84;;;25.23;49.17
48614;BME280;34408;51.426;5.444;2022-08-04T04:33:43;101069.78;;;25.21;49.25
48614;BME280;34408;51.426;5.444;2022-08-04T04:36:22;101068.16;;;25.20;49.27
48614;BME280;34408;51.426;5.444;2022-08-04T04:39:12;101068.97;;;25.20;49.41
48614;BME280;34408;51.426;5.444;2022-08-04T04:42:06;101068.47;;;25.18;49.25
48614;BME280;34408;51.426;5.444;2022-08-04T04:44:51;101069.59;;;25.17;49.19
48614;BME280;34408;51.426;5.444;2022-08-04T04:47:31;101056.50;;;25.14;49.11
48614;BME280;34408;51.426;5.444;2022-08-04T04:50:25;101066.34;;;25.15;49.21
48614;BME280;34408;51.426;5.444;2022-08-04T04:53:08;101066.34;;;25.15;49.43
48614;BME280;34408;51.426;5.444;2022-08-04T04:55:43;101070.56;;;25.13;49.49
48614;BME280;34408;51.426;5.444;2022-08-04T04:58:15;101071.69;;;25.12;49.50
48614;BME280;34408;51.426;5.444;2022-08-04T05:01:15;101079.94;;;25.12;49.19
48614;BME280;34408;51.426;5.444;2022-08-04T05:04:02;101079.13;;;25.11;49.36
48614;BME280;34408;51.426;5.444;2022-08-04T05:06:44;101081.38;;;25.09;49.30
48614;BME280;34408;51.426;5.444;2022-08-04T05:09:28;101080.88;;;25.07;49.45
48614;BME280;34408;51.426;5.444;2022-08-04T05:12:12;101087.50;;;25.06;49.19
48614;BME280;34408;51.426;5.444;2022-08-04T05:15:03;101092.50;;;25.04;49.45
48614;BME280;34408;51.426;5.444;2022-08-04T05:17:36;101088.44;;;25.02;49.79
48614;BME280;34408;51.426;5.444;2022-08-04T05:20:06;101092.00;;;25.02;49.61
48614;BME280;34408;51.426;5.444;2022-08-04T05:22:38;101086.81;;;25.01;49.59
48614;BME280;34408;51.426;5.444;2022-08-04T05:25:11;101084.06;;;25.01;49.58
48614;BME280;34408;51.426;5.444;2022-08-04T05:27:45;101090.38;;;25.01;49.59
48614;BME280;34408;51.426;5.444;2022-08-04T05:30:17;101088.75;;;25.00;49.74
48614;BME280;34408;51.426;5.444;2022-08-04T05:32:52;101083.75;;;25.02;49.78
48614;BME280;34408;51.426;5.444;2022-08-04T05:35:29;101086.00;;;25.00;49.76
48614;BME280;34408;51.426;5.444;2022-08-04T05:38:21;101072.88;;;24.97;50.83
48614;BME280;34408;51.426;5.444;2022-08-04T05:40:50;101069.91;;;24.93;50.66
48614;BME280;34408;51.426;5.444;2022-08-04T05:43:21;101069.91;;;24.93;50.64
48614;BME280;34408;51.426;5.444;2022-08-04T05:45:50;101070.72;;;24.94;50.44
48614;BME280;34408;51.426;5.444;2022-08-04T05:48:19;101053.09;;;24.95;50.23
48614;BME280;34408;51.426;5.444;2022-08-04T05:50:48;101057.19;;;24.97;50.33
48614;BME280;34408;51.426;5.444;2022-08-04T05:53:16;101053.00;;;25.00;50.27
48614;BME280;34408;51.426;5.444;2022-08-04T05:55:45;101052.19;;;25.00;50.26
48614;BME280;34408;51.426;5.444;2022-08-04T05:58:28;101050.56;;;24.98;50.58
48614;BME280;34408;51.426;5.444;2022-08-04T06:00:58;101065.63;;;25.01;50.36
48614;BME280;34408;51.426;5.444;2022-08-04T06:03:28;101065.63;;;25.01;50.08
48614;BME280;34408;51.426;5.444;2022-08-04T06:05:57;101059.94;;;24.97;50.25
48614;BME280;34408;51.426;5.444;2022-08-04T06:08:26;101064.81;;;25.01;50.31
48614;BME280;34408;51.426;5.444;2022-08-04T06:10:56;101062.88;;;25.01;50.43
48614;BME280;34408;51.426;5.444;2022-08-04T06:13:29;101059.31;;;25.01;50.19
48614;BME280;34408;51.426;5.444;2022-08-04T06:16:16;101071.94;;;25.02;50.36
48614;BME280;34408;51.426;5.444;2022-08-04T06:18:58;101065.63;;;25.01;50.01
48614;BME280;34408;51.426;5.444;2022-08-04T06:21:49;101066.44;;;25.02;50.42
48614;BME280;34408;51.426;5.444;2022-08-04T06:24:19;101072.44;;;25.04;50.25
48614;BME280;34408;51.426;5.444;2022-08-04T06:26:49;101070.19;;;25.06;50.96
48614;BME280;34408;51.426;5.444;2022-08-04T06:29:20;101068.75;;;25.08;51.11
48614;BME280;34408;51.426;5.444;2022-08-04T06:31:54;101072.81;;;25.11;50.78
48614;BME280;34408;51.426;5.444;2022-08-04T06:34:45;101080.44;;;25.14;50.71
48614;BME280;34408;51.426;5.444;2022-08-04T06:37:15;101076.25;;;25.16;50.79
48614;BME280;34408;51.426;5.444;2022-08-04T06:40:06;101079.50;;;25.18;50.63
48614;BME280;34408;51.426;5.444;2022-08-04T06:42:56;101088.25;;;25.20;50.84
48614;BME280;34408;51.426;5.444;2022-08-04T06:45:26;101093.44;;;25.22;50.75
48614;BME280;34408;51.426;5.444;2022-08-04T06:47:55;101094.75;;;25.24;50.67
48614;BME280;34408;51.426;5.444;2022-08-04T06:50:23;101097.66;;;25.28;50.97
48614;BME280;34408;51.426;5.444;2022-08-04T06:53:12;101093.47;;;25.30;50.79
48614;BME280;34408;51.426;5.444;2022-08-04T06:55:41;101086.53;;;25.33;51.09
48614;BME280;34408;51.426;5.444;2022-08-04T06:58:10;101087.03;;;25.35;50.92
48614;BME280;34408;51.426;5.444;2022-08-04T07:00:41;101097.72;;;25.37;50.79
48614;BME280;34408;51.426;5.444;2022-08-04T07:03:11;101091.09;;;25.38;51.03
48614;BME280;34408;51.426;5.444;2022-08-04T07:05:39;101098.22;;;25.39;50.78
48614;BME280;34408;51.426;5.444;2022-08-04T07:08:09;101089.16;;;25.38;50.85
48614;BME280;34408;51.426;5.444;2022-08-04T07:10:38;101089.16;;;25.38;51.01
48614;BME280;34408;51.426;5.444;2022-08-04T07:13:07;101091.09;;;25.38;51.00
48614;BME280;34408;51.426;5.444;2022-08-04T07:15:38;101098.22;;;25.39;51.09
48614;BME280;34408;51.426;5.444;2022-08-04T07:18:09;101097.41;;;25.38;50.95
48614;BME280;34408;51.426;5.444;2022-08-04T07:20:40;101093.84;;;25.38;51.32
48614;BME280;34408;51.426;5.444;2022-08-04T07:23:08;101096.59;;;25.38;51.47
48614;BME280;34408;51.426;5.444;2022-08-04T07:25:39;101093.84;;;25.38;51.47
48614;BME280;34408;51.426;5.444;2022-08-04T07:28:28;101104.84;;;25.38;51.25
48614;BME280;34408;51.426;5.444;2022-08-04T07:30:57;101111.97;;;25.39;51.50
48614;BME280;34408;51.426;5.444;2022-08-04T07:33:26;101112.78;;;25.39;51.40
48614;BME280;34408;51.426;5.444;2022-08-04T07:35:55;101106.47;;;25.39;51.31
48614;BME280;34408;51.426;5.444;2022-08-04T07:38:37;101120.72;;;25.41;51.32
48614;BME280;34408;51.426;5.444;2022-08-04T07:41:20;101108.91;;;25.40;51.66
48614;BME280;34408;51.426;5.444;2022-08-04T07:44:04;101106.16;;;25.40;51.81
48614;BME280;34408;51.426;5.444;2022-08-04T07:46:33;101098.72;;;25.41;51.61
48614;BME280;34408;51.426;5.444;2022-08-04T07:49:03;101103.09;;;25.42;51.95
48614;BME280;34408;51.426;5.444;2022-08-04T07:51:32;101107.47;;;25.43;51.77
48614;BME280;34408;51.426;5.444;2022-08-04T07:54:02;101111.03;;;25.43;51.94
48614;BME280;34408;51.426;5.444;2022-08-04T07:56:31;101106.03;;;25.45;51.78
48614;BME280;34408;51.426;5.444;2022-08-04T07:59:00;101106.53;;;25.47;51.97
48614;BME280;34408;51.426;5.444;2022-08-04T08:01:28;101107.03;;;25.49;51.93
48614;BME280;34408;51.426;5.444;2022-08-04T08:03:57;101116.91;;;25.50;52.07
48614;BME280;34408;51.426;5.444;2022-08-04T08:06:28;101124.03;;;25.51;51.97
48614;BME280;34408;51.426;5.444;2022-08-04T08:09:07;101127.28;;;25.53;52.04
48614;BME280;34408;51.426;5.444;2022-08-04T08:11:40;101119.84;;;25.54;52.11
48614;BME280;34408;51.426;5.444;2022-08-04T08:14:28;101128.91;;;25.54;52.46
48614;BME280;34408;51.426;5.444;2022-08-04T08:16:57;101126.34;;;25.58;52.28
48614;BME280;34408;51.426;5.444;2022-08-04T08:19:27;101124.06;;;25.60;52.47
48614;BME280;34408;51.426;5.444;2022-08-04T08:21:56;101122.63;;;25.62;52.50
48614;BME280;34408;51.426;5.444;2022-08-04T08:24:27;101122.31;;;25.64;52.35
48614;BME280;34408;51.426;5.444;2022-08-04T08:26:55;101125.59;;;25.66;52.65
48614;BME280;34408;51.426;5.444;2022-08-04T08:29:24;101117.94;;;25.63;52.68
48614;BME280;34408;51.426;5.444;2022-08-04T08:31:53;101139.53;;;25.70;52.58
48614;BME280;34408;51.426;5.444;2022-08-04T08:34:27;101145.53;;;25.72;52.73
48614;BME280;34408;51.426;5.444;2022-08-04T08:37:02;101140.53;;;25.74;52.86
48614;BME280;34408;51.426;5.444;2022-08-04T08:39:34;101149.59;;;25.74;52.85
48614;BME280;34408;51.426;5.444;2022-08-04T08:42:21;101141.84;;;25.76;52.63
48614;BME280;34408;51.426;5.444;2022-08-04T08:48:10;101153.34;;;25.78;52.98
48614;BME280;34408;51.426;5.444;2022-08-04T08:50:56;101166.00;;;25.79;53.12
48614;BME280;34408;51.426;5.444;2022-08-04T08:53:47;101163.72;;;25.81;52.88
48614;BME280;34408;51.426;5.444;2022-08-04T08:56:27;101160.66;;;25.83;52.97
48614;BME280;34408;51.426;5.444;2022-08-04T08:59:12;101159.53;;;25.84;52.96
48614;BME280;34408;51.426;5.444;2022-08-04T09:01:51;101163.91;;;25.85;52.89
48614;BME280;34408;51.426;5.444;2022-08-04T09:04:41;101169.41;;;25.85;52.98
48614;BME280;34408;51.426;5.444;2022-08-04T09:07:53;101174.59;;;25.86;52.99
48614;BME280;34408;51.426;5.444;2022-08-04T09:10:25;101174.28;;;25.88;53.05
48614;BME280;34408;51.426;5.444;2022-08-04T09:13:02;101172.84;;;25.90;52.82
48614;BME280;34408;51.426;5.444;2022-08-04T09:15:35;101177.53;;;25.90;53.08
48614;BME280;34408;51.426;5.444;2022-08-04T09:18:08;101179.34;;;25.94;52.91
48614;BME280;34408;51.426;5.444;2022-08-04T09:20:43;101174.66;;;25.95;52.63
48614;BME280;34408;51.426;5.444;2022-08-04T09:23:17;101171.59;;;25.97;52.46
48614;BME280;34408;51.426;5.444;2022-08-04T09:25:50;101173.19;;;25.98;52.55
48614;BME280;34408;51.426;5.444;2022-08-04T09:28:23;101183.91;;;25.99;52.37
48614;BME280;34408;51.426;5.444;2022-08-04T09:31:14;101190.22;;;26.00;52.26
48614;BME280;34408;51.426;5.444;2022-08-04T09:33:48;101197.69;;;25.99;52.15
48614;BME280;34408;51.426;5.444;2022-08-04T09:36:27;101199.31;;;26.00;51.80
48614;BME280;34408;51.426;5.444;2022-08-04T09:39:20;101205.13;;;25.99;52.19
48614;BME280;34408;51.426;5.444;2022-08-04T09:42:02;101208.69;;;25.99;52.27
48614;BME280;34408;51.426;5.444;2022-08-04T09:44:44;101202.19;;;25.95;52.00
48614;BME280;34408;51.426;5.444;2022-08-04T09:47:30;101216.28;;;26.02;52.15
48614;BME280;34408;51.426;5.444;2022-08-04T09:50:15;101211.59;;;26.03;52.23
48614;BME280;34408;51.426;5.444;2022-08-04T09:52:51;101213.53;;;26.02;52.07
48614;BME280;34408;51.426;5.444;2022-08-04T09:55:33;101221.97;;;25.97;52.16
48614;BME280;34408;51.426;5.444;2022-08-04T09:58:27;101223.44;;;26.03;52.10
48614;BME280;34408;51.426;5.444;2022-08-04T10:01:06;101215.16;;;26.03;51.84
48614;BME280;34408;51.426;5.444;2022-08-04T10:03:37;101218.72;;;26.04;52.04
48614;BME280;34408;51.426;5.444;2022-08-04T10:09:00;101234.63;;;26.07;51.78
48614;BME280;34408;51.426;5.444;2022-08-04T10:11:44;101244.84;;;26.06;51.88
48614;BME280;34408;51.426;5.444;2022-08-04T10:14:29;101266.88;;;26.06;51.56
48614;BME280;34408;51.426;5.444;2022-08-04T10:17:14;101258.59;;;26.06;51.46
48614;BME280;34408;51.426;5.444;2022-08-04T10:19:55;101255.03;;;26.06;51.54
48614;BME280;34408;51.426;5.444;2022-08-04T10:22:25;101268.00;;;26.05;51.54
48614;BME280;34408;51.426;5.444;2022-08-04T10:25:19;101288.72;;;26.03;52.09
48614;BME280;34408;51.426;5.444;2022-08-04T10:28:12;101288.56;;;25.99;52.16
48614;BME280;34408;51.426;5.444;2022-08-04T10:30:48;101304.28;;;25.99;52.50
48614;BME280;34408;51.426;5.444;2022-08-04T10:33:22;101303.47;;;25.98;52.62
48614;BME280;34408;51.426;5.444;2022-08-04T10:35:56;101290.50;;;25.99;52.72
48614;BME280;34408;51.426;5.444;2022-08-04T10:38:29;101273.19;;;25.98;53.00
48614;BME280;34408;51.426;5.444;2022-08-04T10:41:01;101267.66;;;25.98;53.17
48614;BME280;34408;51.426;5.444;2022-08-04T10:43:42;101240.44;;;25.97;53.27
48614;BME280;34408;51.426;5.444;2022-08-04T10:46:16;101223.09;;;25.96;53.35
48614;BME280;34408;51.426;5.444;2022-08-04T10:48:53;101203.00;;;25.96;53.44
48614;BME280;34408;51.426;5.444;2022-08-04T10:51:26;101215.97;;;25.95;53.76
48614;BME280;34408;51.426;5.444;2022-08-04T10:53:56;101222.91;;;25.92;53.72
48614;BME280;34408;51.426;5.444;2022-08-04T10:56:31;101228.44;;;25.92;53.94
48614;BME280;34408;51.426;5.444;2022-08-04T10:59:06;101225.19;;;25.90;53.95
48614;BME280;34408;51.426;5.444;2022-08-04T11:01:38;101235.06;;;25.91;54.03
48614;BME280;34408;51.426;5.444;2022-08-04T11:04:34;101241.69;;;25.90;53.89
48614;BME280;34408;51.426;5.444;2022-08-04T11:07:04;101246.72;;;25.88;54.08
48614;BME280;34408;51.426;5.444;2022-08-04T11:09:32;101256.41;;;25.86;53.85
48614;BME280;34408;51.426;5.444;2022-08-04T11:12:06;101253.97;;;25.84;53.82
48614;BME280;34408;51.426;5.444;2022-08-04T11:14:40;101256.22;;;25.82;53.81
48614;BME280;34408;51.426;5.444;2022-08-04T11:17:17;101243.59;;;25.81;53.79
48614;BME280;34408;51.426;5.444;2022-08-04T11:19:48;101227.38;;;25.80;53.94
48614;BME280;34408;51.426;5.444;2022-08-04T11:22:40;101230.13;;;25.80;53.87
48614;BME280;34408;51.426;5.444;2022-08-04T11:25:13;101230.44;;;25.78;53.90
48614;BME280;34408;51.426;5.444;2022-08-04T11:27:52;101234.81;;;25.79;53.88
48614;BME280;34408;51.426;5.444;2022-08-04T11:30:24;101236.78;;;25.79;54.16
48614;BME280;34408;51.426;5.444;2022-08-04T11:33:01;101237.59;;;25.79;54.21
48614;BME280;34408;51.426;5.444;2022-08-04T11:35:34;101239.22;;;25.80;54.03
48614;BME280;34408;51.426;5.444;2022-08-04T11:38:08;101241.16;;;25.80;54.33
48614;BME280;34408;51.426;5.444;2022-08-04T11:40:41;101240.03;;;25.81;54.59
48614;BME280;34408;51.426;5.444;2022-08-04T11:43:34;101234.50;;;25.81;54.51
48614;BME280;34408;51.426;5.444;2022-08-04T11:46:25;101227.88;;;25.82;54.52
48614;BME280;34408;51.426;5.444;2022-08-04T11:49:01;101221.56;;;25.81;54.55
48614;BME280;34408;51.426;5.444;2022-08-04T11:51:30;101221.69;;;25.76;54.58
48614;BME280;34408;51.426;5.444;2022-08-04T11:54:00;101239.72;;;25.82;54.84
48614;BME280;34408;51.426;5.444;2022-08-04T11:56:29;101245.22;;;25.82;54.62
48614;BME280;34408;51.426;5.444;2022-08-04T11:59:04;101240.84;;;25.81;54.73
48614;BME280;34408;51.426;5.444;2022-08-04T12:01:46;101234.50;;;25.81;54.80
48614;BME280;34408;51.426;5.444;2022-08-04T12:04:24;101235.31;;;25.81;54.79
48614;BME280;34408;51.426;5.444;2022-08-04T12:06:55;101240.53;;;25.83;54.93
48614;BME280;34408;51.426;5.444;2022-08-04T12:09:48;101255.09;;;25.83;54.84
48614;BME280;34408;51.426;5.444;2022-08-04T12:12:24;101252.03;;;25.85;55.10
48614;BME280;34408;51.426;5.444;2022-08-04T12:14:58;101252.34;;;25.83;54.75
48614;BME280;34408;51.426;5.444;2022-08-04T12:17:35;101251.72;;;25.86;55.00
48614;BME280;34408;51.426;5.444;2022-08-04T12:20:22;101261.59;;;25.87;54.98
48614;BME280;34408;51.426;5.444;2022-08-04T12:23:14;101268.44;;;25.90;55.14
48614;BME280;34408;51.426;5.444;2022-08-04T12:25:50;101264.06;;;25.89;54.85
48614;BME280;34408;51.426;5.444;2022-08-04T12:28:25;101274.56;;;25.87;54.95
48614;BME280;34408;51.426;5.444;2022-08-04T12:31:16;101283.63;;;25.87;55.13
48614;BME280;34408;51.426;5.444;2022-08-04T12:33:50;101265.50;;;25.86;54.93
48614;BME280;34408;51.426;5.444;2022-08-04T12:36:38;101280.06;;;25.87;54.99
48614;BME280;34408;51.426;5.444;2022-08-04T12:39:10;101280.88;;;25.87;54.88
48614;BME280;34408;51.426;5.444;2022-08-04T12:41:42;101286.41;;;25.87;54.98
48614;BME280;34408;51.426;5.444;2022-08-04T12:44:12;101299.84;;;25.89;54.91
48614;BME280;34408;51.426;5.444;2022-08-04T12:47:02;101300.66;;;25.89;55.09
48614;BME280;34408;51.426;5.444;2022-08-04T12:49:52;101300.03;;;25.92;54.93
48614;BME280;34408;51.426;5.444;2022-08-04T12:52:28;101295.84;;;25.95;54.93
48614;BME280;34408;51.426;5.444;2022-08-04T12:55:18;101291.66;;;25.98;54.84
48614;BME280;34408;51.426;5.444;2022-08-04T12:57:48;101288.56;;;25.99;54.76
48614;BME280;34408;51.426;5.444;2022-08-04T13:00:26;101280.78;;;26.01;54.57
48614;BME280;34408;51.426;5.444;2022-08-04T13:03:04;101279.97;;;26.01;54.52
48614;BME280;34408;51.426;5.444;2022-08-04T13:05:37;101284.03;;;26.03;54.65
48614;BME280;34408;51.426;5.444;2022-08-04T13:08:09;101282.09;;;26.04;54.50
48614;BME280;34408;51.426;5.444;2022-08-04T13:10:39;101290.84;;;26.06;54.61
48614;BME280;34408;51.426;5.444;2022-08-04T13:13:14;101293.28;;;26.07;54.58
48614;BME280;34408;51.426;5.444;2022-08-04T13:15:42;101278.06;;;26.10;54.55
48614;BME280;34408;51.426;5.444;2022-08-04T13:18:22;101292.03;;;26.13;54.43
48614;BME280;34408;51.426;5.444;2022-08-04T13:20:56;101273.88;;;26.12;54.78
48614;BME280;34408;51.426;5.444;2022-08-04T13:23:35;101269.03;;;26.18;54.62
48614;BME280;34408;51.426;5.444;2022-08-04T13:26:25;101277.81;;;26.20;54.63
48614;BME280;34408;51.426;5.444;2022-08-04T13:29:13;101281.56;;;26.24;54.65
48614;BME280;34408;51.426;5.444;2022-08-04T13:31:43;101281.56;;;26.24;54.58
48614;BME280;34408;51.426;5.444;2022-08-04T13:34:19;101277.66;;;26.25;54.43
48614;BME280;34408;51.426;5.444;2022-08-04T13:36:48;101272.16;;;26.25;54.58
48614;BME280;34408;51.426;5.444;2022-08-04T13:39:20;101276.53;;;26.26;54.61
48614;BME280;34408;51.426;5.444;2022-08-04T13:41:50;101263.06;;;26.24;54.69
48614;BME280;34408;51.426;5.444;2022-08-04T13:44:28;101264.88;;;26.29;54.36
48614;BME280;34408;51.426;5.444;2022-08-04T13:46:58;101265.38;;;26.31;54.46
48614;BME280;34408;51.426;5.444;2022-08-04T13:49:27;101273.34;;;26.33;54.26
48614;BME280;34408;51.426;5.444;2022-08-04T13:52:15;101268.34;;;26.35;54.41
48614;BME280;34408;51.426;5.444;2022-08-04T13:54:46;101268.03;;;26.36;54.00
48614;BME280;34408;51.426;5.444;2022-08-04T13:57:22;101274.34;;;26.37;53.70
48614;BME280;34408;51.426;5.444;2022-08-04T13:59:58;101266.91;;;26.37;53.34
48614;BME280;34408;51.426;5.444;2022-08-04T14:02:31;101272.41;;;26.37;53.36
48614;BME280;34408;51.426;5.444;2022-08-04T14:05:04;101270.78;;;26.36;53.52
48614;BME280;34408;51.426;5.444;2022-08-04T14:07:46;101261.06;;;26.39;53.52
48614;BME280;34408;51.426;5.444;2022-08-04T14:10:15;101264.31;;;26.41;53.78
48614;BME280;34408;51.426;5.444;2022-08-04T14:12:44;101265.31;;;26.45;53.54
48614;BME280;34408;51.426;5.444;2022-08-04T14:15:30;101264.66;;;26.48;52.95